createdAt,value
2019-02-21T00:01:44.110Z,68.81
2019-02-21T00:04:13.169Z,68.87
2019-02-21T00:06:42.536Z,68.76
2019-02-21T00:09:11.644Z,68.88
2019-02-21T00:11:40.706Z,68.57
2019-02-21T00:14:09.985Z,68.58
2019-02-21T00:16:39.048Z,68.60
2019-02-21T00:19:08.200Z,68.74
2019-02-21T00:21:37.676Z,68.92
2019-02-21T00:24:06.751Z,68.90
2019-02-21T00:26:35.789Z,69.21
2019-02-21T00:29:05.308Z,69.54
2019-02-21T00:31:34.368Z,69.65
2019-02-21T00:34:05.581Z,69.31
2019-02-21T00:36:34.918Z,69.45
2019-02-21T00:39:05.325Z,69.44
2019-02-21T00:41:34.389Z,69.40
2019-02-21T00:44:06.968Z,69.63
2019-02-21T00:46:36.037Z,70.09
2019-02-21T00:49:05.184Z,69.68
2019-02-21T00:51:34.543Z,69.94
2019-02-21T00:54:04.836Z,69.84
2019-02-21T00:56:34.017Z,70.00
2019-02-21T00:59:05.557Z,69.80
2019-02-21T01:01:35.027Z,69.92
2019-02-21T01:04:06.045Z,70.31
2019-02-21T01:06:35.472Z,70.35
2019-02-21T01:09:06.825Z,70.37
2019-02-21T01:11:36.348Z,70.60
2019-02-21T01:14:06.689Z,71.01
2019-02-21T01:16:35.765Z,70.88
2019-02-21T01:19:04.902Z,71.40
2019-02-21T01:21:34.318Z,71.25
2019-02-21T01:24:05.139Z,71.51
2019-02-21T01:26:34.578Z,71.81
2019-02-21T01:29:04.246Z,71.89
2019-02-21T01:31:34.054Z,71.88
2019-02-21T01:34:06.433Z,72.07
2019-02-21T01:36:37.748Z,72.06
2019-02-21T01:39:09.211Z,71.71
2019-02-21T01:41:39.572Z,71.78
2019-02-21T01:44:09.101Z,71.78
2019-02-21T01:46:38.150Z,71.49
2019-02-21T01:49:07.214Z,71.68
2019-02-21T01:51:36.810Z,71.74
2019-02-21T01:54:06.422Z,71.78
2019-02-21T01:56:35.556Z,72.08
2019-02-21T01:59:05.049Z,72.65
2019-02-21T02:01:34.730Z,72.40
2019-02-21T02:04:06.431Z,72.05
2019-02-21T02:06:35.825Z,72.12
2019-02-21T02:09:11.204Z,71.69
2019-02-21T02:11:40.305Z,71.50
2019-02-21T02:14:12.118Z,71.27
2019-02-21T02:16:41.910Z,71.54
2019-02-21T02:19:10.991Z,71.55
2019-02-21T02:21:40.386Z,71.73
2019-02-21T02:24:09.421Z,71.60
2019-02-21T02:26:38.539Z,71.36
2019-02-21T02:29:07.615Z,71.21
2019-02-21T02:31:37.136Z,71.52
2019-02-21T02:34:06.747Z,72.12
2019-02-21T02:36:35.910Z,71.62
2019-02-21T02:39:05.607Z,72.19
2019-02-21T02:41:34.776Z,72.62
2019-02-21T02:44:04.407Z,72.57
2019-02-21T02:46:33.720Z,73.06
2019-02-21T02:49:03.057Z,72.95
2019-02-21T02:51:32.377Z,72.48
2019-02-21T02:54:04.285Z,72.43
2019-02-21T02:56:34.504Z,72.45
2019-02-21T02:59:05.341Z,72.35
2019-02-21T03:01:35.295Z,72.70
2019-02-21T03:04:07.069Z,73.33
2019-02-21T03:06:37.213Z,73.48
2019-02-21T03:09:08.528Z,73.03
2019-02-21T03:11:37.626Z,74.24
2019-02-21T03:14:06.710Z,74.80
2019-02-21T03:16:36.019Z,75.12
2019-02-21T03:19:05.101Z,75.20
2019-02-21T03:21:34.168Z,75.42
2019-02-21T03:24:06.587Z,75.65
2019-02-21T03:26:35.684Z,76.08
2019-02-21T03:29:05.725Z,76.27
2019-02-21T03:31:52.681Z,76.24
2019-02-21T03:34:08.893Z,75.89
2019-02-21T03:36:37.944Z,75.37
2019-02-21T03:39:08.503Z,75.07
2019-02-21T03:41:37.873Z,74.76
2019-02-21T03:44:06.970Z,74.14
2019-02-21T03:46:36.334Z,74.49
2019-02-21T03:49:05.488Z,74.43
2019-02-21T03:51:34.559Z,73.88
2019-02-21T03:54:06.721Z,73.91
2019-02-21T03:56:35.853Z,74.06
2019-02-21T03:59:07.174Z,73.95
2019-02-21T04:01:36.295Z,74.37
2019-02-21T04:04:08.824Z,73.90
2019-02-21T04:06:38.161Z,73.95
2019-02-21T04:09:08.901Z,73.77
2019-02-21T04:11:38.074Z,73.76
2019-02-21T04:14:07.669Z,74.15
2019-02-21T04:16:37.216Z,74.16
2019-02-21T04:19:06.301Z,73.61
2019-02-21T04:21:35.626Z,73.32
2019-02-21T04:24:07.423Z,73.05
2019-02-21T04:26:36.579Z,72.88
2019-02-21T04:29:06.021Z,73.12
2019-02-21T04:31:35.617Z,72.84
2019-02-21T04:34:05.782Z,72.74
2019-02-21T04:36:35.106Z,73.33
2019-02-21T04:39:05.039Z,73.53
2019-02-21T04:41:34.123Z,73.29
2019-02-21T04:44:06.834Z,73.04
2019-02-21T04:46:35.951Z,73.06
2019-02-21T04:49:05.111Z,73.38
2019-02-21T04:51:34.197Z,73.53
2019-02-21T04:54:04.637Z,73.69
2019-02-21T04:56:33.977Z,73.46
2019-02-21T04:59:03.028Z,73.23
2019-02-21T05:01:32.110Z,73.26
2019-02-21T05:04:01.181Z,73.49
2019-02-21T05:06:30.540Z,73.33
2019-02-21T05:08:59.614Z,73.30
2019-02-21T05:11:28.677Z,73.08
2019-02-21T05:13:58.447Z,73.02
2019-02-21T05:16:27.557Z,73.01
2019-02-21T05:18:56.648Z,72.97
2019-02-21T05:21:26.116Z,72.99
2019-02-21T05:23:55.252Z,73.00
2019-02-21T05:26:31.877Z,72.75
2019-02-21T05:29:01.407Z,72.97
2019-02-21T05:31:42.210Z,72.97
2019-02-21T05:34:26.236Z,73.61
2019-02-21T05:37:02.302Z,74.30
2019-02-21T05:39:47.746Z,74.33
2019-02-21T05:42:30.119Z,74.22
2019-02-21T05:45:13.331Z,74.82
2019-02-21T05:48:04.359Z,74.91
2019-02-21T05:50:44.859Z,75.32
2019-02-21T05:53:28.569Z,75.75
2019-02-21T05:56:18.006Z,75.68
2019-02-21T05:58:57.065Z,76.00
2019-02-21T06:01:48.722Z,76.49
2019-02-21T06:04:37.504Z,76.73
2019-02-21T06:07:24.557Z,76.70
2019-02-21T06:10:06.689Z,76.88
2019-02-21T06:12:54.980Z,76.76
2019-02-21T06:15:32.576Z,76.73
2019-02-21T06:18:19.407Z,76.99
2019-02-21T06:21:07.442Z,77.14
2019-02-21T06:23:46.031Z,76.54
2019-02-21T06:26:39.462Z,76.60
2019-02-21T06:29:24.558Z,76.60
2019-02-21T06:31:53.679Z,76.08
2019-02-21T06:34:24.089Z,76.12
2019-02-21T06:36:53.132Z,76.23
2019-02-21T06:39:22.223Z,76.39
2019-02-21T06:41:59.224Z,76.42
2019-02-21T06:44:22.472Z,75.91
2019-02-21T06:46:51.561Z,75.67
2019-02-21T06:49:31.750Z,76.46
2019-02-21T06:51:51.834Z,76.61
2019-02-21T06:54:22.525Z,76.14
2019-02-21T06:56:51.825Z,75.87
2019-02-21T06:59:20.902Z,76.17
2019-02-21T07:01:50.281Z,76.25
2019-02-21T07:04:19.329Z,75.85
2019-02-21T07:06:48.496Z,75.89
2019-02-21T07:09:17.854Z,76.01
2019-02-21T07:11:46.918Z,75.68
2019-02-21T07:14:15.981Z,76.34
2019-02-21T07:16:45.573Z,76.13
2019-02-21T07:19:14.726Z,76.10
2019-02-21T07:21:43.808Z,76.33
2019-02-21T07:24:13.513Z,76.58
2019-02-21T07:26:42.925Z,76.39
2019-02-21T07:29:12.089Z,76.50
2019-02-21T07:31:41.579Z,76.64
2019-02-21T07:34:10.642Z,76.45
2019-02-21T07:36:39.712Z,76.72
2019-02-21T07:39:18.330Z,76.80
2019-02-21T07:41:41.743Z,76.74
2019-02-21T07:44:12.327Z,76.80
2019-02-21T07:46:42.338Z,76.28
2019-02-21T07:49:11.416Z,76.00
2019-02-21T07:51:41.557Z,76.15
2019-02-21T07:54:11.039Z,75.68
2019-02-21T07:56:42.220Z,76.00
2019-02-21T07:59:12.160Z,75.77
2019-02-21T08:01:41.777Z,75.79
2019-02-21T08:04:11.243Z,75.50
2019-02-21T08:06:40.330Z,75.50
2019-02-21T08:09:09.745Z,76.66
2019-02-21T08:11:41.764Z,76.69
2019-02-21T08:14:10.837Z,76.25
2019-02-21T08:16:40.328Z,76.50
2019-02-21T08:19:09.381Z,76.19
2019-02-21T08:21:38.571Z,76.08
2019-02-21T08:24:07.873Z,75.91
2019-02-21T08:26:37.028Z,75.20
2019-02-21T08:29:06.365Z,74.82
2019-02-21T08:31:35.881Z,75.16
2019-02-21T08:34:10.152Z,74.70
2019-02-21T08:36:39.682Z,74.58
2019-02-21T08:39:10.404Z,74.25
2019-02-21T08:41:39.445Z,73.88
2019-02-21T08:44:08.522Z,73.70
2019-02-21T08:46:37.930Z,73.52
2019-02-21T08:49:07.021Z,73.30
2019-02-21T08:51:36.084Z,72.79
2019-02-21T08:54:07.452Z,72.82
2019-02-21T08:56:36.498Z,73.10
2019-02-21T08:59:05.618Z,72.79
2019-02-21T09:01:34.742Z,72.58
2019-02-21T09:04:10.896Z,72.44
2019-02-21T09:06:37.533Z,72.14
2019-02-21T09:09:06.917Z,72.47
2019-02-21T09:11:36.002Z,72.44
2019-02-21T09:14:08.146Z,72.48
2019-02-21T09:16:37.249Z,71.68
2019-02-21T09:19:06.417Z,71.57
2019-02-21T09:21:35.856Z,71.14
2019-02-21T09:24:07.937Z,70.70
2019-02-21T09:26:37.032Z,70.18
2019-02-21T09:29:08.727Z,69.74
2019-02-21T09:31:38.927Z,69.33
2019-02-21T09:34:08.019Z,69.17
2019-02-21T09:36:38.199Z,69.30
2019-02-21T09:39:07.421Z,68.66
2019-02-21T09:41:36.490Z,68.18
2019-02-21T09:44:08.793Z,68.05
2019-02-21T09:46:40.516Z,67.50
2019-02-21T09:49:08.819Z,67.50
2019-02-21T09:51:38.185Z,67.63
2019-02-21T09:54:07.290Z,67.49
2019-02-21T09:56:36.397Z,67.33
2019-02-21T09:59:05.881Z,67.40
2019-02-21T10:01:35.267Z,67.44
2019-02-21T10:04:06.964Z,67.04
2019-02-21T10:06:36.375Z,66.94
2019-02-21T10:09:06.255Z,66.47
2019-02-21T10:11:35.916Z,65.37
2019-02-21T10:14:06.094Z,64.36
2019-02-21T10:16:35.193Z,61.96
2019-02-21T10:19:04.808Z,61.64
2019-02-21T10:21:35.227Z,62.06
2019-02-21T10:24:07.353Z,61.90
2019-02-21T10:26:36.501Z,61.77
2019-02-21T10:29:05.870Z,61.83
2019-02-21T10:31:34.969Z,62.00
2019-02-21T10:34:07.094Z,62.01
2019-02-21T10:36:36.457Z,62.27
2019-02-21T10:39:06.354Z,63.12
2019-02-21T10:41:35.423Z,63.85
2019-02-21T10:44:06.569Z,64.14
2019-02-21T10:46:35.651Z,64.73
2019-02-21T10:49:04.852Z,64.74
2019-02-21T10:51:34.217Z,64.79
2019-02-21T10:54:04.761Z,64.78
2019-02-21T10:56:33.942Z,64.84
2019-02-21T10:59:03.402Z,65.59
2019-02-21T11:01:32.502Z,65.58
2019-02-21T11:04:01.704Z,65.34
2019-02-21T11:06:31.191Z,65.11
2019-02-21T11:09:00.278Z,64.88
2019-02-21T11:11:29.699Z,64.33
2019-02-21T11:13:59.645Z,63.53
2019-02-21T11:16:29.009Z,63.22
2019-02-21T11:18:58.248Z,62.92
2019-02-21T11:21:27.809Z,62.21
2019-02-21T11:23:57.430Z,60.91
2019-02-21T11:26:26.687Z,60.92
2019-02-21T11:28:56.325Z,60.76
2019-02-21T11:31:27.807Z,60.59
2019-02-21T11:33:57.432Z,60.91
2019-02-21T11:36:26.986Z,61.00
2019-02-21T11:38:57.195Z,61.20
2019-02-21T11:41:26.431Z,61.28
2019-02-21T11:43:56.069Z,61.18
2019-02-21T11:46:25.369Z,61.45
2019-02-21T11:49:02.198Z,61.50
2019-02-21T11:51:31.962Z,61.46
2019-02-21T11:54:03.296Z,61.53
2019-02-21T11:56:33.075Z,61.73
2019-02-21T11:59:03.100Z,61.50
2019-02-21T12:01:32.594Z,60.54
2019-02-21T12:04:03.676Z,60.03
2019-02-21T12:06:33.306Z,58.58
2019-02-21T12:09:02.556Z,57.76
2019-02-21T12:11:31.918Z,57.21
2019-02-21T12:14:03.071Z,56.77
2019-02-21T12:16:32.622Z,56.92
2019-02-21T12:19:02.064Z,56.69
2019-02-21T12:21:31.649Z,56.43
2019-02-21T12:24:01.000Z,56.73
2019-02-21T12:26:35.163Z,56.84
2019-02-21T12:29:06.204Z,56.98
2019-02-21T12:31:36.214Z,56.00
2019-02-21T12:34:08.593Z,54.48
2019-02-21T12:36:37.850Z,52.56
2019-02-21T12:39:07.335Z,51.84
2019-02-21T12:41:36.893Z,50.15
2019-02-21T12:44:17.532Z,50.06
2019-02-21T12:46:46.787Z,50.50
2019-02-21T12:49:16.046Z,50.90
2019-02-21T12:51:45.358Z,49.90
2019-02-21T12:54:15.039Z,48.82
2019-02-21T12:56:44.303Z,49.36
2019-02-21T12:59:13.659Z,49.63
2019-02-21T13:01:43.399Z,49.92
2019-02-21T13:04:12.649Z,50.03
2019-02-21T13:06:41.971Z,49.87
2019-02-21T13:09:11.533Z,50.27
2019-02-21T13:11:41.075Z,48.75
2019-02-21T13:14:10.403Z,47.82
2019-02-21T13:16:40.933Z,47.68
2019-02-21T13:19:10.233Z,47.61
2019-02-21T13:21:39.667Z,47.67
2019-02-21T13:24:09.240Z,47.64
2019-02-21T13:26:38.554Z,47.95
2019-02-21T13:29:07.856Z,48.26
2019-02-21T13:31:37.441Z,49.11
2019-02-21T13:34:11.265Z,48.67
2019-02-21T13:36:40.588Z,48.66
2019-02-21T13:39:10.165Z,49.71
2019-02-21T13:41:39.440Z,47.78
2019-02-21T13:44:09.095Z,46.47
2019-02-21T13:46:41.289Z,46.57
2019-02-21T13:49:11.118Z,46.44
2019-02-21T13:51:40.591Z,46.70
2019-02-21T13:54:10.355Z,47.19
2019-02-21T13:56:40.151Z,47.60
2019-02-21T13:59:11.231Z,48.16
2019-02-21T14:01:40.919Z,48.85
2019-02-21T14:04:10.183Z,49.18
2019-02-21T14:06:39.544Z,49.48
2019-02-21T14:09:10.781Z,49.97
2019-02-21T14:11:40.411Z,50.44
2019-02-21T14:14:10.650Z,50.79
2019-02-21T14:16:46.525Z,51.25
2019-02-21T14:19:11.585Z,51.25
2019-02-21T14:21:43.644Z,52.37
2019-02-21T14:24:12.379Z,52.67
2019-02-21T14:26:41.806Z,52.53
2019-02-21T14:29:11.549Z,52.36
2019-02-21T14:31:41.173Z,52.25
2019-02-21T14:34:10.714Z,51.63
2019-02-21T14:36:40.384Z,51.75
2019-02-21T14:39:10.687Z,50.95
2019-02-21T14:41:39.977Z,50.30
2019-02-21T14:44:09.306Z,50.08
2019-02-21T14:46:38.952Z,50.28
2019-02-21T14:49:08.269Z,50.18
2019-02-21T14:51:37.869Z,50.23
2019-02-21T14:54:07.570Z,49.76
2019-02-21T14:56:37.273Z,49.90
2019-02-21T14:59:06.637Z,50.10
2019-02-21T15:01:36.766Z,50.50
2019-02-21T15:04:09.310Z,51.09
2019-02-21T15:06:39.385Z,51.39
2019-02-21T15:09:09.409Z,51.35
2019-02-21T15:11:40.692Z,51.15
2019-02-21T15:14:10.339Z,51.30
2019-02-21T15:16:40.416Z,50.92
2019-02-21T15:19:10.407Z,51.09
2019-02-21T15:21:40.070Z,50.69
2019-02-21T15:24:09.973Z,50.76
2019-02-21T15:26:40.068Z,50.84
2019-02-21T15:29:11.496Z,50.99
2019-02-21T15:31:41.893Z,51.46
2019-02-21T15:34:12.207Z,51.43
2019-02-21T15:36:42.489Z,51.17
2019-02-21T15:39:12.820Z,51.37
2019-02-21T15:41:42.290Z,51.11
2019-02-21T15:44:12.052Z,51.64
2019-02-21T15:46:42.911Z,51.99
2019-02-21T15:49:12.496Z,51.79
2019-02-21T15:51:42.678Z,52.27
2019-02-21T15:54:12.711Z,53.03
2019-02-21T15:56:42.437Z,53.29
2019-02-21T15:59:13.672Z,53.74
2019-02-21T16:01:47.541Z,53.93
2019-02-21T16:04:15.293Z,54.15
2019-02-21T16:06:51.151Z,54.14
2019-02-21T16:09:16.866Z,55.02
2019-02-21T16:11:46.717Z,55.28
2019-02-21T16:14:19.897Z,54.81
2019-02-21T16:16:50.051Z,54.70
2019-02-21T16:19:27.759Z,55.16
2019-02-21T16:21:57.612Z,55.01
2019-02-21T16:24:28.586Z,55.48
2019-02-21T16:27:00.791Z,56.05
2019-02-21T16:29:30.534Z,55.70
2019-02-21T16:32:00.559Z,55.90
2019-02-21T16:34:32.972Z,55.99
2019-02-21T16:37:03.726Z,56.32
2019-02-21T16:39:33.566Z,56.59
2019-02-21T16:42:04.995Z,56.87
2019-02-21T16:44:35.013Z,57.00
2019-02-21T16:47:05.932Z,56.95
2019-02-21T16:49:35.687Z,57.05
2019-02-21T16:52:09.701Z,56.91
2019-02-21T16:54:39.386Z,56.87
2019-02-21T16:57:09.053Z,57.08
2019-02-21T16:59:39.052Z,56.98
2019-02-21T17:02:08.997Z,57.00
2019-02-21T17:04:39.685Z,57.10
2019-02-21T17:07:15.141Z,57.17
2019-02-21T17:09:41.108Z,57.56
2019-02-21T17:12:11.113Z,57.50
2019-02-21T17:14:40.759Z,57.42
2019-02-21T17:17:10.565Z,57.42
2019-02-21T17:19:40.508Z,57.63
2019-02-21T17:22:10.220Z,58.17
2019-02-21T17:24:42.013Z,58.00
2019-02-21T17:27:13.108Z,58.43
2019-02-21T17:29:42.779Z,58.98
2019-02-21T17:32:12.639Z,59.00
2019-02-21T17:34:42.696Z,58.97
2019-02-21T17:37:12.576Z,59.82
2019-02-21T17:39:42.434Z,60.02
2019-02-21T17:42:12.397Z,60.18
2019-02-21T17:44:42.132Z,59.89
2019-02-21T17:47:11.895Z,59.56
2019-02-21T17:49:42.889Z,59.40
2019-02-21T17:52:12.846Z,59.46
2019-02-21T17:54:42.661Z,59.60
2019-02-21T17:57:12.749Z,59.66
2019-02-21T17:59:42.554Z,59.51
2019-02-21T18:02:12.483Z,59.95
2019-02-21T18:04:42.546Z,60.55
2019-02-21T18:07:12.302Z,60.07
2019-02-21T18:09:42.326Z,59.40
2019-02-21T18:12:12.730Z,59.53
2019-02-21T18:14:42.463Z,59.37
2019-02-21T18:17:12.348Z,59.23
2019-02-21T18:19:42.656Z,59.12
2019-02-21T18:22:12.574Z,59.43
2019-02-21T18:24:42.435Z,59.00
2019-02-21T18:27:12.235Z,58.74
2019-02-21T18:29:43.807Z,58.91
2019-02-21T18:32:13.958Z,59.35
2019-02-21T18:34:45.027Z,59.45
2019-02-21T18:37:14.951Z,59.54
2019-02-21T18:39:44.790Z,59.30
2019-02-21T18:42:14.801Z,59.28
2019-02-21T18:44:45.295Z,59.36
2019-02-21T18:47:15.385Z,60.04
2019-02-21T18:49:45.343Z,59.82
2019-02-21T18:52:16.849Z,59.35
2019-02-21T18:54:46.985Z,59.07
2019-02-21T18:57:17.303Z,59.24
2019-02-21T18:59:47.388Z,59.63
2019-02-21T19:02:19.877Z,59.61
2019-02-21T19:04:50.395Z,59.50
2019-02-21T19:07:20.899Z,59.33
2019-02-21T19:09:52.864Z,59.48
2019-02-21T19:12:22.976Z,59.71
2019-02-21T19:14:52.759Z,59.85
2019-02-21T19:17:22.970Z,60.22
2019-02-21T19:19:53.986Z,60.21
2019-02-21T19:22:24.285Z,60.31
2019-02-21T19:24:54.539Z,60.29
2019-02-21T19:27:36.659Z,60.29
2019-02-21T19:29:58.214Z,60.46
2019-02-21T19:32:28.072Z,60.52
2019-02-21T19:34:58.635Z,60.42
2019-02-21T19:37:30.585Z,60.39
2019-02-21T19:40:00.911Z,60.18
2019-02-21T19:42:31.997Z,60.11
2019-02-21T19:45:03.686Z,60.16
2019-02-21T19:47:34.243Z,60.30
2019-02-21T19:50:07.046Z,60.44
2019-02-21T19:52:36.894Z,60.62
2019-02-21T19:55:07.697Z,60.54
2019-02-21T19:57:41.118Z,61.12
2019-02-21T20:00:14.497Z,60.94
2019-02-21T20:02:45.374Z,60.77
2019-02-21T20:05:16.747Z,60.82
2019-02-21T20:07:47.469Z,60.58
2019-02-21T20:10:18.034Z,60.84
2019-02-21T20:12:47.952Z,60.52
2019-02-21T20:15:18.452Z,60.29
2019-02-21T20:17:49.051Z,60.35
2019-02-21T20:20:19.208Z,60.21
2019-02-21T20:22:49.100Z,60.13
2019-02-21T20:25:19.459Z,60.23
2019-02-21T20:27:49.531Z,60.46
2019-02-21T20:30:19.474Z,60.42
2019-02-21T20:32:49.422Z,60.19
2019-02-21T20:35:19.423Z,60.39
2019-02-21T20:37:49.313Z,60.16
2019-02-21T20:40:19.428Z,60.14
2019-02-21T20:42:50.966Z,60.12
2019-02-21T20:45:21.430Z,60.16
2019-02-21T20:47:51.200Z,60.21
2019-02-21T20:50:20.973Z,60.44
2019-02-21T20:52:51.110Z,60.43
2019-02-21T20:55:20.899Z,60.63
2019-02-21T20:57:50.777Z,61.21
2019-02-21T21:00:22.085Z,60.99
2019-02-21T21:02:51.859Z,60.69
2019-02-21T21:05:21.846Z,60.76
2019-02-21T21:07:52.950Z,60.81
2019-02-21T21:10:23.035Z,60.86
2019-02-21T21:12:53.137Z,61.07
2019-02-21T21:15:23.232Z,61.49
2019-02-21T21:17:53.674Z,61.66
2019-02-21T21:20:25.914Z,61.93
2019-02-21T21:22:57.278Z,61.83
2019-02-21T21:25:27.449Z,61.69
2019-02-21T21:27:57.459Z,61.73
2019-02-21T21:30:27.491Z,61.72
2019-02-21T21:32:57.248Z,61.73
2019-02-21T21:35:26.893Z,61.76
2019-02-21T21:37:57.164Z,61.81
2019-02-21T21:40:26.958Z,61.87
2019-02-21T21:42:56.591Z,61.92
2019-02-21T21:45:26.516Z,61.94
2019-02-21T21:47:57.406Z,61.98
2019-02-21T21:50:27.173Z,62.00
2019-02-21T21:52:57.083Z,62.17
2019-02-21T21:55:26.873Z,62.36
2019-02-21T21:57:56.280Z,62.41
2019-02-21T22:00:26.028Z,62.24
2019-02-21T22:02:55.599Z,62.08
2019-02-21T22:05:24.894Z,62.42
2019-02-21T22:07:54.567Z,62.13
2019-02-21T22:10:23.846Z,62.18
2019-02-21T22:12:53.148Z,62.09
2019-02-21T22:15:22.870Z,62.08
2019-02-21T22:17:52.283Z,62.15
2019-02-21T22:20:21.560Z,62.04
2019-02-21T22:22:51.276Z,62.16
2019-02-21T22:25:26.756Z,62.05
2019-02-21T22:27:56.073Z,62.22
2019-02-21T22:30:25.690Z,62.04
2019-02-21T22:32:54.972Z,62.27
2019-02-21T22:35:24.654Z,62.22
2019-02-21T22:37:53.894Z,62.25
2019-02-21T22:40:23.181Z,62.15
2019-02-21T22:42:52.430Z,62.13
2019-02-21T22:45:21.670Z,62.21
2019-02-21T22:47:51.271Z,62.24
2019-02-21T22:50:20.496Z,62.42
2019-02-21T22:52:49.749Z,62.97
2019-02-21T22:55:19.026Z,62.89
2019-02-21T22:57:48.687Z,62.86
2019-02-21T23:00:59.972Z,62.76
2019-02-21T23:03:50.337Z,62.67
2019-02-21T23:06:46.013Z,62.84
2019-02-21T23:09:27.431Z,62.56
2019-02-21T23:11:53.927Z,62.88
2019-02-21T23:14:23.288Z,62.62
2019-02-21T23:16:52.524Z,62.62
2019-02-21T23:19:24.148Z,62.61
2019-02-21T23:21:53.039Z,62.81
2019-02-21T23:24:22.258Z,62.62
2019-02-21T23:26:51.818Z,62.60
2019-02-21T23:29:21.039Z,62.46
2019-02-21T23:31:50.409Z,62.78
2019-02-21T23:34:35.452Z,62.63
2019-02-21T23:37:04.894Z,62.50
2019-02-21T23:39:38.308Z,62.77
2019-02-21T23:42:06.365Z,62.74
2019-02-21T23:44:35.645Z,62.58
2019-02-21T23:47:05.284Z,62.49
2019-02-21T23:49:34.541Z,62.49
2019-02-21T23:52:04.480Z,62.43
2019-02-21T23:54:34.011Z,63.02
2019-02-21T23:57:03.415Z,62.86
2019-02-21T23:59:32.653Z,62.93
